Howe, Illinois
Current Conditions -  °F | °C
As of 11:15 AM on Saturday 20 Dec 2014 (Local Time) from KVYS Reporting Station
Overcast Overcast  
Wind Chill: 32°   Ceiling: 3500
Heat Index: 32°   Visibility: 7mi
Dew Point: 26°   Wind: 3mph
Humidity: 80%   Direction: 170°S
Pressure: 30.28"   Gusts: NA
Location:  41.3278°N, 89.2998°W
Report Text: KVYS 201715Z AUTO 17003KT 7SM BKN035 OVC055 00/M03 A3028 RMK AO2 T10021032
Loading
Personal Weather Stations






























Interactive Weather Map New forecast layout! Learn more

10-Day Weather Forecast

Advertisements
Track Severe Weather on mobile